Terminal Aerodrome Forecast
Issued by NWS

Home | Current Version | Previous Version | Text Only | Print | Product List | Glossary On
Versions: 1 2 3 4 5 6 7 8 9 10 11 12 13 14 15 16 17 18 19 20 21 22 23 24
000
FTUS44 KMAF 291700 RRA
TAFFST
TAF
KFST 291753Z 2918/3018 28011KT P6SM SCT050
     FM300000 11011KT P6SM SCT080 BKN150
     FM301300 07012G22KT 6SM BR SCT020 BKN030
      TEMPO 3013/3017 4SM BR BKN010
     FM301700 07014G22KT P6SM BKN030=

USA.gov is the U.S. government's official web portal to all federal, state and local government web resources and services.